Airport View

Enter AWOS ICAO identifier for current METAR.

ex. KFNL

22 Jul 2019 18:08

Frequency: 118.625

Phone: 405-382-0111

Other Area AWOS: KSNL - KCQB - KADH - KTIK

TAF KTIK 221700Z 2217/2323 01015G20KT 9999 FEW020 SCT040 QNH3010INS BECMG 2300/2301 04009KT 9999 FEW060 QNH3011INS BECMG 2314/2315 05012KT 9999 FEW040 QNH3015INS TX28/2223Z TN18/2312Z